Time;durP1;ratioP1;P1;durP2;ratioP2;P2;SDS_P1;SDS_P2;PMS_P1;PMS_P2;Temp;Humidity;BMP_temperature;BMP_pressure;BME280_temperature;BME280_humidity;BME280_pressure;Samples;Min_cycle;Max_cycle;Signal;HPM_P1;HPM_P2
2022/01/26 00:00:42;;;;;;;31.50;15.53;;;;;;;4.06;100.00;102129.56;4836449;29;20050;-81
2022/01/26 00:06:02;;;;;;;29.97;14.13;;;;;;;3.94;100.00;102137.91;4860639;29;20564;-82
2022/01/26 00:08:29;;;;;;;28.50;14.05;;;;;;;4.02;100.00;102132.91;4858754;29;20088;-82
2022/01/26 00:10:56;;;;;;;29.80;15.20;;;;;;;3.99;100.00;102138.06;4844074;29;20046;-82
2022/01/26 00:13:22;;;;;;;30.43;13.77;;;;;;;3.97;100.00;102129.28;4840348;29;20110;-82
2022/01/26 00:15:49;;;;;;;27.30;14.30;;;;;;;3.99;100.00;102134.56;4829159;29;20048;-81
2022/01/26 00:18:19;;;;;;;25.37;13.57;;;;;;;4.01;100.00;102135.50;4840825;29;20054;-82
2022/01/26 00:20:55;;;;;;;23.20;12.33;;;;;;;3.97;100.00;102133.63;4834845;29;20178;-81
2022/01/26 00:23:48;;;;;;;22.03;11.40;;;;;;;4.04;100.00;102133.88;4857393;29;20056;-82
2022/01/26 00:26:21;;;;;;;25.53;12.60;;;;;;;4.01;100.00;102125.03;4858321;29;20042;-82
2022/01/26 00:40:02;;;;;;;23.23;11.53;;;;;;;4.05;100.00;102125.19;4846658;29;20045;-82
2022/01/26 00:42:35;;;;;;;24.40;12.57;;;;;;;4.00;100.00;102124.16;4827127;29;20049;-82
2022/01/26 00:45:07;;;;;;;29.00;13.25;;;;;;;3.90;100.00;102116.88;4830644;29;20053;-82
2022/01/26 00:47:34;;;;;;;25.70;12.73;;;;;;;4.00;100.00;102115.41;4838913;29;20057;-83
2022/01/26 00:50:07;;;;;;;24.17;12.57;;;;;;;4.02;100.00;102126.81;4837180;29;20042;-82
2022/01/26 00:52:39;;;;;;;23.23;12.23;;;;;;;4.02;100.00;102118.94;4844388;29;20045;-82
2022/01/26 00:55:08;;;;;;;23.13;11.53;;;;;;;4.03;100.00;102124.22;4851481;29;20045;-82
2022/01/26 00:57:35;;;;;;;23.87;12.53;;;;;;;3.98;100.00;102122.34;4847205;29;20049;-82
2022/01/26 01:00:05;;;;;;;24.30;12.20;;;;;;;4.04;100.00;102130.38;4832764;29;20057;-82
2022/01/26 01:02:33;;;;;;;24.47;12.53;;;;;;;4.00;100.00;102131.09;4860098;29;20054;-82
2022/01/26 01:05:10;;;;;;;26.70;12.93;;;;;;;3.95;100.00;102131.88;4851180;29;20056;-81
2022/01/26 01:07:39;;;;;;;23.93;13.00;;;;;;;3.97;100.00;102125.78;4842511;29;20144;-81
2022/01/26 01:10:06;;;;;;;25.07;12.13;;;;;;;3.98;100.00;102133.69;4859082;29;20722;-82
2022/01/26 01:12:39;;;;;;;26.70;13.00;;;;;;;3.98;100.00;102127.56;4833317;29;20082;-82
2022/01/26 01:15:06;;;;;;;24.27;12.80;;;;;;;3.94;100.00;102123.94;4835756;29;20069;-82
2022/01/26 01:17:43;;;;;;;23.70;13.57;;;;;;;3.94;100.00;102114.38;4819434;29;20054;-81
2022/01/26 01:28:22;;;;;;;26.80;12.80;;;;;;;3.93;100.00;102120.44;4835257;29;20053;-80
2022/01/26 01:30:55;;;;;;;27.50;12.63;;;;;;;3.99;100.00;102119.75;4850108;29;20117;-81
2022/01/26 01:33:28;;;;;;;25.23;12.53;;;;;;;3.93;100.00;102127.41;4833468;29;20526;-85
2022/01/26 01:35:54;;;;;;;28.80;13.93;;;;;;;3.95;100.00;102123.09;4851201;29;20144;-80
2022/01/26 01:38:21;;;;;;;28.50;13.70;;;;;;;3.92;100.00;102120.41;4817808;29;20038;-85
2022/01/26 01:40:50;;;;;;;28.03;13.40;;;;;;;3.98;100.00;102118.00;4833412;29;20110;-85
2022/01/26 01:43:19;;;;;;;25.97;13.40;;;;;;;3.91;100.00;102116.91;4847615;29;20460;-81
2022/01/26 01:45:49;;;;;;;29.37;14.57;;;;;;;3.92;100.00;102112.56;4833371;29;20053;-85
2022/01/26 01:48:23;;;;;;;28.03;14.03;;;;;;;3.97;100.00;102110.09;4832485;29;20097;-83
2022/01/26 01:50:51;;;;;;;23.90;12.75;;;;;;;3.88;100.00;102101.16;4849015;29;20110;-84
2022/01/26 01:53:19;;;;;;;27.60;14.17;;;;;;;3.83;100.00;102099.22;4832899;29;20049;-85
2022/01/26 01:55:50;;;;;;;24.17;12.40;;;;;;;3.82;100.00;102095.72;4837450;29;20050;-84
2022/01/26 01:58:19;;;;;;;21.05;10.63;;;;;;;3.83;100.00;102100.09;4846168;29;20050;-81
2022/01/26 02:00:46;;;;;;;24.33;11.57;;;;;;;3.89;100.00;102095.06;4833262;29;20109;-84
2022/01/26 02:03:13;;;;;;;19.63;10.20;;;;;;;3.83;100.00;102094.88;4845962;29;20045;-81
2022/01/26 02:05:40;;;;;;;22.63;11.30;;;;;;;3.85;100.00;102089.69;4811749;29;20102;-84
2022/01/26 02:08:07;;;;;;;22.80;11.00;;;;;;;3.80;100.00;102094.81;4821162;29;20053;-84
2022/01/26 02:10:34;;;;;;;19.57;10.60;;;;;;;3.81;100.00;102095.69;4828735;29;20105;-81
2022/01/26 02:13:12;;;;;;;21.87;11.13;;;;;;;3.87;100.00;102082.81;4858931;29;20069;-81
2022/01/26 02:16:07;;;;;;;19.60;11.30;;;;;;;3.83;100.00;102087.03;4817932;29;20052;-84
2022/01/26 02:18:59;;;;;;;18.43;9.40;;;;;;;3.79;100.00;102085.19;4829164;29;20128;-85
2022/01/26 02:49:38;;;;;;;14.97;7.77;;;;;;;3.67;100.00;102074.34;4842867;29;20088;-81
2022/01/26 03:02:33;;;;;;;12.67;7.53;;;;;;;3.64;100.00;102079.50;4819936;29;20042;-85
2022/01/26 03:05:02;;;;;;;15.33;8.03;;;;;;;3.67;100.00;102069.13;4809776;29;20060;-82
2022/01/26 03:10:08;;;;;;;12.37;6.73;;;;;;;3.69;100.00;102059.59;4844356;29;20049;-82
2022/01/26 03:13:22;;;;;;;11.95;6.97;;;;;;;3.73;100.00;102058.84;4845184;29;20045;-86
2022/01/26 03:15:31;;;;;;;12.40;7.13;;;;;;;3.65;100.00;102061.25;4821459;29;20054;-85
2022/01/26 03:20:45;;;;;;;14.23;6.37;;;;;;;3.58;100.00;102054.06;4827325;29;20061;-87
2022/01/26 03:28:59;;;;;;;13.93;8.67;;;;;;;3.51;100.00;102051.19;4841397;29;20065;-85
2022/01/26 03:34:13;;;;;;;12.10;6.87;;;;;;;3.55;100.00;102046.13;4844001;29;20037;-87
2022/01/26 03:36:50;;;;;;;14.07;8.07;;;;;;;3.55;100.00;102045.25;4842440;29;20054;-82
2022/01/26 03:39:19;;;;;;;13.73;6.93;;;;;;;3.53;100.00;102049.50;4829211;29;20045;-82
2022/01/26 03:41:51;;;;;;;15.00;7.13;;;;;;;3.51;100.00;102048.59;4842075;29;20054;-83
2022/01/26 03:44:18;;;;;;;15.83;7.80;;;;;;;3.63;100.00;102049.88;4821676;29;20046;-87
2022/01/26 03:46:46;;;;;;;13.07;7.00;;;;;;;3.54;100.00;102041.75;4830151;29;20101;-86
2022/01/26 03:49:13;;;;;;;14.93;8.30;;;;;;;3.53;100.00;102037.38;4853832;29;20046;-86
2022/01/26 03:51:41;;;;;;;17.37;9.10;;;;;;;3.50;100.00;102034.63;4826597;29;20049;-86
2022/01/26 03:54:09;;;;;;;14.20;7.47;;;;;;;3.55;100.00;102037.41;4851494;29;20060;-85
2022/01/26 03:56:36;;;;;;;15.17;7.77;;;;;;;3.60;100.00;102034.06;4826797;29;20071;-84
2022/01/26 03:59:04;;;;;;;14.30;7.00;;;;;;;3.53;100.00;102039.06;4842646;29;20053;-82
2022/01/26 04:01:32;;;;;;;14.27;7.13;;;;;;;3.51;100.00;102035.53;4825428;29;20451;-85
2022/01/26 04:03:59;;;;;;;12.37;7.20;;;;;;;3.47;100.00;102029.34;4828512;29;20045;-86
2022/01/26 04:06:28;;;;;;;16.03;7.63;;;;;;;3.43;100.00;102040.50;4831122;29;20069;-87
2022/01/26 04:08:55;;;;;;;15.67;8.43;;;;;;;3.44;100.00;102036.16;4811866;29;20367;-86
2022/01/26 04:11:33;;;;;;;14.73;7.30;;;;;;;3.53;100.00;102033.84;4817488;29;20045;-85
2022/01/26 04:14:04;;;;;;;13.73;7.33;;;;;;;3.54;100.00;102030.41;4810627;29;20050;-86
2022/01/26 04:16:31;;;;;;;12.90;7.60;;;;;;;3.50;100.00;102033.75;4808161;29;20046;-85
2022/01/26 04:18:58;;;;;;;16.13;7.73;;;;;;;3.52;100.00;102021.63;4842897;29;20096;-86
2022/01/26 04:24:17;;;;;;;14.10;7.60;;;;;;;3.48;100.00;102028.50;4827175;29;20094;-87
2022/01/26 04:26:50;;;;;;;16.43;7.87;;;;;;;3.45;100.00;102032.72;4836653;29;20045;-84
2022/01/26 04:29:24;;;;;;;15.90;7.15;;;;;;;3.47;100.00;102025.84;4828589;29;20049;-85
2022/01/26 04:31:50;;;;;;;15.10;7.90;;;;;;;3.44;100.00;102028.34;4827673;29;20050;-86
2022/01/26 04:34:17;;;;;;;14.77;8.33;;;;;;;3.38;100.00;102024.72;4828760;29;20423;-87
2022/01/26 04:36:56;;;;;;;13.50;7.43;;;;;;;3.43;100.00;102026.56;4805658;29;20086;-85
2022/01/26 04:39:31;;;;;;;20.50;7.93;;;;;;;3.47;100.00;102028.44;4823881;29;20057;-87
2022/01/26 04:42:03;;;;;;;18.17;7.70;;;;;;;3.49;100.00;102026.75;4811747;29;20053;-83
2022/01/26 04:44:39;;;;;;;15.13;8.50;;;;;;;3.46;100.00;102024.94;4829362;29;20050;-86
2022/01/26 04:47:06;;;;;;;16.43;8.07;;;;;;;3.46;100.00;102024.06;4820051;29;20050;-87
2022/01/26 04:49:34;;;;;;;17.77;8.00;;;;;;;3.37;100.00;102017.72;4824419;29;20111;-86
2022/01/26 04:52:02;;;;;;;14.70;7.40;;;;;;;3.42;100.00;102020.47;4854741;29;20050;-87
2022/01/26 04:54:29;;;;;;;15.53;7.87;;;;;;;3.38;100.00;102019.50;4837973;29;20166;-87
2022/01/26 04:56:56;;;;;;;16.33;9.43;;;;;;;3.35;100.00;102019.38;4836259;29;20054;-88
2022/01/26 04:59:22;;;;;;;14.23;7.60;;;;;;;3.32;100.00;102021.03;4809284;29;20042;-85
2022/01/26 05:01:49;;;;;;;15.10;8.07;;;;;;;3.31;100.00;102020.13;4840462;29;20101;-86
2022/01/26 05:04:16;;;;;;;15.57;7.80;;;;;;;3.35;100.00;102014.16;4809036;29;20041;-87
2022/01/26 05:06:42;;;;;;;18.80;8.93;;;;;;;3.36;100.00;102009.81;4850400;29;20058;-86
2022/01/26 05:09:09;;;;;;;16.53;7.90;;;;;;;3.33;100.00;102008.00;4823148;29;20061;-86
2022/01/26 05:11:39;;;;;;;14.43;8.03;;;;;;;3.33;100.00;102008.00;4839250;29;20148;-87
2022/01/26 05:14:06;;;;;;;16.37;9.10;;;;;;;3.38;100.00;102011.66;4811524;29;20046;-84
2022/01/26 05:16:33;;;;;;;15.90;8.57;;;;;;;3.34;100.00;102011.50;4824306;29;20464;-86
2022/01/26 05:19:00;;;;;;;17.00;8.70;;;;;;;3.33;100.00;102010.63;4838805;29;20046;-86
2022/01/26 05:21:29;;;;;;;18.33;8.13;;;;;;;3.32;100.00;102001.00;4837640;29;20046;-83
2022/01/26 05:23:55;;;;;;;18.67;8.73;;;;;;;3.39;100.00;102002.09;4805499;29;20042;-86
2022/01/26 05:26:23;;;;;;;18.50;9.40;;;;;;;3.33;100.00;102000.16;4821256;29;20046;-87
2022/01/26 05:28:49;;;;;;;22.33;9.63;;;;;;;3.34;100.00;101995.81;4794361;29;20102;-83
2022/01/26 05:31:16;;;;;;;18.67;8.47;;;;;;;3.32;100.00;101998.41;4800778;29;20052;-85
2022/01/26 05:33:43;;;;;;;19.93;9.77;;;;;;;3.33;100.00;102000.16;4841400;29;20053;-84
2022/01/26 05:36:10;;;;;;;20.90;10.03;;;;;;;3.29;100.00;101993.09;4807015;29;20061;-86
2022/01/26 05:38:37;;;;;;;20.43;10.63;;;;;;;3.36;100.00;101996.75;4811412;29;20072;-86
2022/01/26 05:41:04;;;;;;;19.57;9.67;;;;;;;3.37;100.00;101985.50;4823670;29;20057;-85
2022/01/26 05:43:32;;;;;;;18.70;9.70;;;;;;;3.35;100.00;101976.69;4825371;29;20042;-87
2022/01/26 05:46:02;;;;;;;20.67;10.20;;;;;;;3.37;100.00;101986.38;4839401;29;20428;-86
2022/01/26 05:48:29;;;;;;;21.50;10.20;;;;;;;3.40;100.00;101988.19;4833511;29;20060;-86
2022/01/26 05:51:04;;;;;;;18.93;9.57;;;;;;;3.34;100.00;102008.88;4813003;29;20050;-83
2022/01/26 05:53:32;;;;;;;20.23;9.97;;;;;;;3.33;100.00;102000.16;4811278;29;20053;-85
2022/01/26 05:55:59;;;;;;;20.03;10.17;;;;;;;3.30;100.00;101997.47;4826337;29;20495;-88
2022/01/26 05:58:26;;;;;;;16.03;8.60;;;;;;;3.27;100.00;101992.13;4831806;29;20458;-84
2022/01/26 06:00:53;;;;;;;18.97;9.53;;;;;;;3.28;100.00;101993.94;4822558;29;20049;-87
2022/01/26 06:03:20;;;;;;;18.70;8.63;;;;;;;3.21;100.00;101985.88;4841057;29;20041;-85
2022/01/26 06:05:46;;;;;;;21.00;8.10;;;;;;;3.28;100.00;101986.09;4842752;29;20049;-85
2022/01/26 06:08:13;;;;;;;15.90;8.73;;;;;;;3.22;100.00;101990.25;4825328;29;20053;-86
2022/01/26 06:10:40;;;;;;;16.73;8.13;;;;;;;3.16;100.00;101983.09;4816080;29;20717;-86
2022/01/26 06:13:07;;;;;;;15.63;8.77;;;;;;;3.17;100.00;101984.88;4821900;29;20106;-86
2022/01/26 06:15:37;;;;;;;18.07;10.23;;;;;;;3.21;100.00;101989.38;4824633;29;20052;-85
2022/01/26 06:18:04;;;;;;;16.93;8.30;;;;;;;3.27;100.00;101983.41;4810513;29;20061;-87
2022/01/26 06:20:30;;;;;;;19.77;9.73;;;;;;;3.22;100.00;101980.69;4811388;29;20292;-86
2022/01/26 06:22:57;;;;;;;23.40;8.93;;;;;;;3.19;100.00;101980.56;4792953;29;20057;-84
2022/01/26 06:25:24;;;;;;;18.60;10.37;;;;;;;3.20;100.00;101971.03;4823957;29;20385;-86
2022/01/26 06:27:55;;;;;;;16.43;7.90;;;;;;;3.19;100.00;101972.72;4808320;29;20049;-87
2022/01/26 06:30:22;;;;;;;23.03;9.00;;;;;;;3.23;100.00;101958.06;4809351;29;20054;-86
2022/01/26 06:32:49;;;;;;;20.70;8.73;;;;;;;3.13;100.00;101959.50;4808066;29;20098;-87
2022/01/26 06:35:20;;;;;;;21.70;9.93;;;;;;;3.17;100.00;101968.31;4815267;29;20121;-84
2022/01/26 06:37:46;;;;;;;19.67;9.03;;;;;;;3.14;100.00;101971.72;4840925;29;20053;-87
2022/01/26 06:40:13;;;;;;;20.27;9.73;;;;;;;3.20;100.00;101963.22;4815651;29;20109;-86
2022/01/26 06:43:07;;;;;;;20.87;10.33;;;;;;;3.16;100.00;101975.25;4802979;29;20843;-86
2022/01/26 06:45:31;;;;;;;20.50;10.70;;;;;;;3.14;100.00;101976.06;4820315;29;20098;-86
2022/01/26 06:48:26;;;;;;;21.33;9.70;;;;;;;3.15;100.00;101973.50;4825795;29;20060;-84
2022/01/26 06:50:48;;;;;;;23.30;11.33;;;;;;;3.22;100.00;101977.19;4827805;29;20135;-87
2022/01/26 06:53:15;;;;;;;19.20;10.20;;;;;;;3.16;100.00;101979.59;4824663;29;20475;-84
2022/01/26 06:55:41;;;;;;;22.00;10.20;;;;;;;3.13;100.00;101977.78;4796397;29;20058;-84
2022/01/26 06:58:08;;;;;;;23.00;10.40;;;;;;;3.11;100.00;101976.84;4819589;29;20447;-85
2022/01/26 07:00:35;;;;;;;20.27;9.43;;;;;;;3.10;100.00;101978.56;4828910;29;20053;-84
2022/01/26 07:03:02;;;;;;;25.13;11.10;;;;;;;3.16;100.00;101979.59;4827797;29;20045;-84
2022/01/26 07:05:29;;;;;;;23.83;10.77;;;;;;;3.14;100.00;101974.34;4829157;29;20101;-86
2022/01/26 07:07:56;;;;;;;23.80;11.73;;;;;;;3.16;100.00;101977.88;4827721;29;20101;-86
2022/01/26 07:10:23;;;;;;;24.70;10.80;;;;;;;3.17;100.00;101968.31;4828871;29;20049;-85
2022/01/26 07:12:50;;;;;;;21.50;11.33;;;;;;;3.17;100.00;101963.97;4827667;29;20114;-85
2022/01/26 07:23:40;;;;;;;24.53;12.13;;;;;;;3.17;100.00;101948.31;4859715;29;20049;-84
2022/01/26 07:26:07;;;;;;;22.90;10.97;;;;;;;3.15;100.00;101950.00;4827866;29;20069;-86
2022/01/26 07:28:37;;;;;;;21.50;11.87;;;;;;;3.16;100.00;101943.94;4813903;29;20053;-85
2022/01/26 07:31:08;;;;;;;23.23;10.70;;;;;;;3.15;100.00;101946.50;4827423;29;20500;-87
2022/01/26 07:33:36;;;;;;;25.93;11.50;;;;;;;3.12;100.00;101947.31;4828241;29;20064;-88
2022/01/26 07:36:03;;;;;;;21.53;10.10;;;;;;;3.10;100.00;101948.94;4842219;29;20049;-87
2022/01/26 07:38:34;;;;;;;27.60;11.40;;;;;;;3.11;100.00;101955.94;4828102;29;20056;-84
2022/01/26 07:41:01;;;;;;;27.87;11.60;;;;;;;3.08;100.00;101948.03;4827241;29;20046;-86
2022/01/26 07:43:28;;;;;;;23.13;11.17;;;;;;;3.05;100.00;101953.16;4843116;29;20527;-84
2022/01/26 07:45:55;;;;;;;25.80;11.50;;;;;;;3.08;100.00;101956.75;4821283;29;20061;-87
2022/01/26 07:48:23;;;;;;;25.93;12.07;;;;;;;3.12;100.00;101968.19;4811646;29;20483;-82
2022/01/26 07:50:52;;;;;;;25.20;12.00;;;;;;;3.08;100.00;101961.09;4842645;29;20046;-85
2022/01/26 07:53:19;;;;;;;26.60;12.13;;;;;;;3.11;100.00;101969.00;4826751;29;20041;-84
2022/01/26 07:55:48;;;;;;;29.30;12.03;;;;;;;3.12;100.00;101980.38;4842825;29;20094;-85
2022/01/26 07:58:19;;;;;;;24.57;11.93;;;;;;;3.07;100.00;101982.81;4841499;29;20049;-84
2022/01/26 08:00:46;;;;;;;26.77;11.80;;;;;;;3.04;100.00;101991.44;4812498;29;20105;-85
2022/01/26 08:03:13;;;;;;;24.67;11.20;;;;;;;3.02;100.00;101987.00;4810929;29;20491;-84
2022/01/26 08:05:41;;;;;;;22.67;11.03;;;;;;;3.01;100.00;101983.50;4826067;29;20042;-85
2022/01/26 08:08:08;;;;;;;25.47;11.80;;;;;;;3.03;100.00;101980.97;4822957;29;20049;-86
2022/01/26 08:10:35;;;;;;;23.97;10.87;;;;;;;3.05;100.00;101981.88;4834295;29;20056;-85
2022/01/26 08:13:02;;;;;;;25.43;12.00;;;;;;;2.96;100.00;101973.78;4819068;29;20054;-85
2022/01/26 08:15:33;;;;;;;28.07;12.07;;;;;;;3.02;100.00;101963.50;4824528;29;20532;-85
2022/01/26 08:18:00;;;;;;;22.33;11.13;;;;;;;2.98;100.00;101977.31;4832364;29;20050;-85
2022/01/26 08:20:27;;;;;;;26.10;12.30;;;;;;;3.01;100.00;101965.22;4827651;29;20105;-85
2022/01/26 08:22:56;;;;;;;27.90;11.27;;;;;;;3.12;100.00;101962.09;4841080;29;20084;-85
2022/01/26 08:25:23;;;;;;;24.33;10.67;;;;;;;3.04;100.00;101970.56;4824968;29;20038;-85
2022/01/26 08:27:59;;;;;;;23.63;9.80;;;;;;;3.09;100.00;101968.97;4818026;29;20059;-85
2022/01/26 08:30:28;;;;;;;19.87;11.57;;;;;;;3.08;100.00;101976.75;4828137;29;20496;-85
2022/01/26 08:32:55;;;;;;;21.87;11.43;;;;;;;3.08;100.00;101969.81;4812311;29;20061;-86
2022/01/26 08:35:22;;;;;;;31.30;12.70;;;;;;;3.07;100.00;101974.97;4828612;29;20500;-85
2022/01/26 08:37:48;;;;;;;23.53;11.97;;;;;;;3.11;100.00;101955.94;4842042;29;20049;-85
2022/01/26 08:40:16;;;;;;;19.63;9.90;;;;;;;3.12;100.00;101952.53;4812890;29;20511;-85
2022/01/26 08:42:43;;;;;;;23.13;10.13;;;;;;;3.15;100.00;101970.00;4826387;29;20046;-85
2022/01/26 08:45:10;;;;;;;21.73;11.73;;;;;;;3.08;100.00;101977.63;4813070;29;20061;-84
2022/01/26 08:47:37;;;;;;;22.77;10.77;;;;;;;3.12;100.00;101972.53;4841771;29;20057;-85
2022/01/26 08:50:05;;;;;;;20.93;10.90;;;;;;;3.17;100.00;101974.41;4827829;29;20045;-85
2022/01/26 08:52:33;;;;;;;20.07;11.00;;;;;;;3.14;100.00;101987.41;4825937;29;20531;-84
2022/01/26 08:55:00;;;;;;;21.63;9.00;;;;;;;3.16;100.00;101990.03;4824743;29;20479;-83
2022/01/26 08:57:28;;;;;;;23.53;9.87;;;;;;;3.18;100.00;101975.31;4807850;29;20049;-84
2022/01/26 08:59:55;;;;;;;22.23;10.43;;;;;;;3.15;100.00;101977.84;4824425;29;20054;-85
2022/01/26 09:02:22;;;;;;;22.40;9.83;;;;;;;3.10;100.00;101969.84;4848896;29;20407;-86
2022/01/26 09:04:49;;;;;;;23.97;9.90;;;;;;;3.10;100.00;101969.84;4828203;29;20050;-84
2022/01/26 09:07:16;;;;;;;23.30;10.43;;;;;;;3.04;100.00;101954.00;4826603;29;20094;-84
2022/01/26 09:09:45;;;;;;;21.37;10.10;;;;;;;3.06;100.00;101968.00;4827451;29;20045;-84
2022/01/26 09:12:17;;;;;;;21.70;8.67;;;;;;;3.11;100.00;101984.66;4818312;29;20049;-86
2022/01/26 09:14:45;;;;;;;21.70;10.10;;;;;;;3.02;100.00;101995.72;4826899;29;20046;-85
2022/01/26 09:17:12;;;;;;;22.70;11.60;;;;;;;3.07;100.00;101994.16;4812183;29;20061;-84
2022/01/26 09:19:45;;;;;;;22.80;10.37;;;;;;;2.99;100.00;101979.97;4843572;29;20465;-84
2022/01/26 09:22:16;;;;;;;19.00;10.70;;;;;;;3.08;100.00;101974.13;4817816;29;20578;-84
2022/01/26 09:24:44;;;;;;;19.87;9.93;;;;;;;3.09;100.00;101978.50;4833743;29;20046;-84
2022/01/26 09:27:14;;;;;;;23.47;10.93;;;;;;;3.03;100.00;101971.41;4832790;29;20085;-84
2022/01/26 09:29:42;;;;;;;25.40;10.87;;;;;;;3.04;100.00;101982.72;4819668;29;20045;-85
2022/01/26 09:32:11;;;;;;;23.07;10.33;;;;;;;3.04;100.00;101983.63;4819427;29;20052;-86
2022/01/26 09:34:39;;;;;;;18.73;9.83;;;;;;;3.05;100.00;101984.50;4837037;29;20041;-84
2022/01/26 09:37:08;;;;;;;21.87;10.67;;;;;;;3.08;100.00;101982.84;4835477;29;20500;-84
2022/01/26 09:39:35;;;;;;;21.00;8.80;;;;;;;3.05;100.00;101990.59;4840535;29;20144;-85
2022/01/26 09:42:01;;;;;;;21.63;10.03;;;;;;;3.03;100.00;101994.03;4807698;29;20046;-85
2022/01/26 09:44:30;;;;;;;16.57;7.17;;;;;;;2.96;100.00;101977.25;4818743;29;20576;-85
2022/01/26 09:46:57;;;;;;;16.13;7.47;;;;;;;3.05;100.00;101990.59;4801654;29;20042;-87
2022/01/26 09:49:31;;;;;;;16.77;8.13;;;;;;;3.03;100.00;101983.56;4820402;29;20057;-83
2022/01/26 09:52:15;;;;;;;19.13;8.35;;;;;;;2.95;100.00;101990.28;4836319;29;20124;-84
2022/01/26 09:54:42;;;;;;;18.10;8.05;;;;;;;2.94;100.00;101993.69;4817353;29;20079;-84
2022/01/26 09:57:27;;;;;;;17.80;7.60;;;;;;;2.93;100.00;101986.69;4834478;29;20121;-85
2022/01/26 09:59:56;;;;;;;17.57;7.83;;;;;;;2.92;100.00;101984.94;4850918;29;20053;-83
2022/01/26 10:02:25;;;;;;;15.73;7.90;;;;;;;3.03;100.00;101991.41;4832230;29;20439;-84
2022/01/26 10:05:02;;;;;;;11.10;6.33;;;;;;;3.02;100.00;101973.94;4840705;29;20177;-83
2022/01/26 10:07:45;;;;;;;14.43;6.60;;;;;;;3.00;100.00;101975.63;4814928;29;20042;-87
2022/01/26 10:15:37;;;;;;;13.60;5.90;;;;;;;2.79;100.00;101975.84;4846523;29;20049;-83
2022/01/26 10:18:16;;;;;;;11.23;6.43;;;;;;;2.83;100.00;101983.81;4845477;29;20132;-83
2022/01/26 10:20:49;;;;;;;16.60;7.57;;;;;;;2.85;100.00;101991.69;4831647;29;20081;-83
2022/01/26 10:23:24;;;;;;;12.87;5.90;;;;;;;2.86;100.00;101996.09;4829697;29;20496;-84
2022/01/26 10:26:13;;;;;;;12.43;5.93;;;;;;;2.90;100.00;102004.88;4811859;29;20061;-82
2022/01/26 10:28:56;;;;;;;12.67;5.80;;;;;;;2.96;100.00;101994.66;4833156;29;20050;-83
2022/01/26 10:31:25;;;;;;;11.80;5.43;;;;;;;2.90;100.00;102002.28;4827891;29;20153;-83
2022/01/26 10:34:16;;;;;;;13.47;5.07;;;;;;;2.86;100.00;102006.53;4826364;29;20524;-86
2022/01/26 10:36:50;;;;;;;12.60;6.20;;;;;;;2.89;100.00;101990.94;4825635;29;20060;-81
2022/01/26 10:39:25;;;;;;;12.35;4.90;;;;;;;2.97;100.00;102005.13;4845924;29;20061;-84
2022/01/26 10:41:55;;;;;;;14.13;6.20;;;;;;;2.92;100.00;101995.38;4834767;29;20050;-80
2022/01/26 10:44:29;;;;;;;10.67;5.20;;;;;;;2.82;100.00;102004.63;4804942;29;20050;-81
2022/01/26 10:47:00;;;;;;;11.80;6.03;;;;;;;2.92;100.00;101991.03;4832440;29;20046;-81
2022/01/26 10:52:20;;;;;;;8.47;4.37;;;;;;;2.94;100.00;101988.47;4842202;29;20050;-81
2022/01/26 10:54:48;;;;;;;24.60;15.30;;;;;;;2.82;100.00;101979.44;4807417;29;20052;-81
2022/01/26 10:57:16;;;;;;;7.17;4.13;;;;;;;2.78;100.00;101989.72;4863220;29;20050;-82
2022/01/26 10:59:48;;;;;;;9.83;5.67;;;;;;;2.88;100.00;101977.88;4845363;29;20057;-81
2022/01/26 11:02:23;;;;;;;26.23;16.07;;;;;;;2.96;100.00;101979.00;4813823;29;20132;-81
2022/01/26 11:04:50;;;;;;;10.30;5.47;;;;;;;2.99;100.00;101993.00;4856169;29;20147;-81
2022/01/26 11:07:18;;;;;;;7.00;3.70;;;;;;;2.97;100.00;101984.25;4808481;29;20062;-82
2022/01/26 11:09:47;;;;;;;6.43;3.63;;;;;;;3.00;100.00;101994.78;4822905;29;20049;-84
2022/01/26 11:12:16;;;;;;;8.77;5.93;;;;;;;3.06;100.00;101971.47;4824521;29;20503;-83
2022/01/26 11:14:50;;;;;;;10.20;5.47;;;;;;;3.09;100.00;101974.19;4827571;29;20419;-83
2022/01/26 11:17:30;;;;;;;7.43;3.90;;;;;;;3.11;100.00;101979.44;4829394;29;20057;-80
2022/01/26 11:19:58;;;;;;;9.23;7.07;;;;;;;3.07;100.00;101983.69;4830958;29;20046;-82
2022/01/26 11:22:30;;;;;;;8.70;5.50;;;;;;;2.97;100.00;101985.97;4813165;29;20215;-81
2022/01/26 11:25:09;;;;;;;10.73;6.10;;;;;;;3.07;100.00;101985.44;4814836;29;20454;-82
2022/01/26 11:27:37;;;;;;;10.00;6.17;;;;;;;3.08;100.00;101968.91;4835058;29;20440;-81
2022/01/26 11:30:27;;;;;;;12.17;6.63;;;;;;;3.15;100.00;101955.22;4830140;29;20384;-82
2022/01/26 11:33:18;;;;;;;10.83;6.47;;;;;;;3.24;100.00;101947.66;4829611;29;20064;-82
2022/01/26 11:35:48;;;;;;;7.97;4.67;;;;;;;3.33;100.00;101953.16;4808240;29;20678;-82
2022/01/26 11:47:20;;;;;;;8.50;5.07;;;;;;;3.20;100.00;101940.59;4845019;29;20571;-83
2022/01/26 11:49:52;;;;;;;8.27;4.03;;;;;;;3.23;100.00;101926.72;4828871;29;20839;-83
2022/01/26 11:52:19;;;;;;;7.47;4.20;;;;;;;3.32;100.00;101930.47;4810189;29;20596;-82
2022/01/26 11:54:56;;;;;;;7.77;3.83;;;;;;;3.35;100.00;101914.00;4845134;29;20106;-84
2022/01/26 12:00:08;;;;;;;7.10;3.97;;;;;;;3.31;100.00;101907.81;4855033;29;20423;-81
2022/01/26 12:05:14;;;;;;;9.73;4.00;;;;;;;3.34;100.00;101901.78;4834746;29;20471;-82
2022/01/26 12:07:52;;;;;;;8.57;4.03;;;;;;;3.29;100.00;101898.19;4808276;29;20057;-80
2022/01/26 12:10:29;;;;;;;8.77;3.43;;;;;;;3.28;100.00;101879.03;4809949;29;20053;-81
2022/01/26 12:13:07;;;;;;;6.87;4.07;;;;;;;3.38;100.00;101883.66;4809220;29;20065;-81
2022/01/26 12:15:45;;;;;;;7.83;4.00;;;;;;;3.37;100.00;101875.78;4824739;29;20042;-82
2022/01/26 12:18:37;;;;;;;8.33;4.23;;;;;;;3.37;100.00;101862.72;4809402;29;20065;-80
2022/01/26 12:33:05;;;;;;;8.83;5.03;;;;;;;3.42;100.00;101842.81;4855884;29;20046;-80
2022/01/26 12:35:54;;;;;;;8.90;4.93;;;;;;;3.38;100.00;101852.31;4858706;29;20102;-81
2022/01/26 12:38:42;;;;;;;6.80;4.27;;;;;;;3.32;100.00;101861.69;4822843;29;20492;-80
2022/01/26 12:41:23;;;;;;;9.80;4.60;;;;;;;3.29;100.00;101854.66;4804899;29;20108;-80
2022/01/26 12:43:56;;;;;;;8.07;4.57;;;;;;;3.30;100.00;101850.31;4827620;29;20118;-81
2022/01/26 12:46:28;;;;;;;8.87;4.20;;;;;;;3.23;100.00;101851.00;4793546;29;20137;-82
2022/01/26 12:48:59;;;;;;;8.83;4.73;;;;;;;3.18;100.00;101860.41;4794359;29;20045;-81
2022/01/26 12:51:29;;;;;;;8.07;3.93;;;;;;;3.07;100.00;101860.09;4823137;29;20060;-82
2022/01/26 12:54:00;;;;;;;10.03;5.03;;;;;;;3.08;100.00;101857.53;4824588;29;20049;-81
2022/01/26 12:56:28;;;;;;;10.40;4.97;;;;;;;3.01;100.00;101860.78;4807939;29;20570;-81
2022/01/26 12:59:10;;;;;;;9.43;4.53;;;;;;;3.03;100.00;101850.44;4808794;29;20042;-81
2022/01/26 13:01:37;;;;;;;7.80;3.90;;;;;;;3.03;100.00;101847.81;4789108;29;20057;-81
2022/01/26 13:04:06;;;;;;;8.87;4.43;;;;;;;3.00;100.00;101845.09;4790659;29;20046;-81
2022/01/26 13:06:36;;;;;;;8.50;4.47;;;;;;;3.06;100.00;101845.28;4789035;29;20071;-82
2022/01/26 13:09:27;;;;;;;8.80;4.70;;;;;;;3.12;100.00;101831.53;4802717;29;20595;-79
2022/01/26 13:11:58;;;;;;;8.27;4.40;;;;;;;3.00;100.00;101830.31;4789273;29;20114;-80
2022/01/26 13:14:30;;;;;;;10.27;5.30;;;;;;;3.00;100.00;101824.22;4802778;29;20496;-79
2022/01/26 13:19:57;;;;;;;12.47;4.73;;;;;;;3.02;100.00;101815.56;4818145;29;20555;-78
2022/01/26 13:28:10;;;;;;;11.50;5.43;;;;;;;3.04;100.00;101789.53;4806996;29;20064;-80
2022/01/26 13:31:17;;;;;;;8.80;4.50;;;;;;;3.03;100.00;101780.81;4792117;29;20076;-79
2022/01/26 13:34:14;;;;;;;11.13;5.37;;;;;;;3.06;100.00;101775.66;4819790;29;20046;-80
2022/01/26 13:37:04;;;;;;;17.37;6.60;;;;;;;3.11;100.00;101778.41;4800044;29;20062;-80
2022/01/26 13:39:46;;;;;;;19.40;8.10;;;;;;;3.14;100.00;101782.84;4825222;29;20082;-81